createdAt,value
2024-03-02T00:00:56.485Z,11.84
2024-03-02T00:03:26.246Z,11.98
2024-03-02T00:05:57.560Z,12.35
2024-03-02T00:08:27.784Z,12.12
2024-03-02T00:11:02.299Z,11.89
2024-03-02T00:13:32.124Z,11.61
2024-03-02T00:16:01.965Z,11.83
2024-03-02T00:18:36.216Z,12.02
2024-03-02T00:21:05.530Z,12.01
2024-03-02T00:23:36.337Z,11.96
2024-03-02T00:26:06.236Z,12.01
2024-03-02T00:28:37.952Z,11.94
2024-03-02T00:31:08.810Z,12.02
2024-03-02T00:33:41.051Z,11.95
2024-03-02T00:36:10.829Z,11.61
2024-03-02T00:38:46.548Z,11.77
2024-03-02T00:41:21.607Z,11.65
2024-03-02T00:43:57.340Z,11.69
2024-03-02T00:46:27.413Z,11.83
2024-03-02T00:48:57.256Z,11.58
2024-03-02T00:51:27.196Z,11.92
2024-03-02T00:54:05.667Z,11.48
2024-03-02T00:56:36.148Z,11.43
2024-03-02T00:59:12.030Z,11.95
2024-03-02T01:01:43.539Z,11.90
2024-03-02T01:04:13.162Z,11.47
2024-03-02T01:06:42.026Z,11.47
2024-03-02T01:09:14.623Z,11.51
2024-03-02T01:11:43.754Z,11.23
2024-03-02T01:14:12.635Z,11.49
2024-03-02T01:16:43.251Z,11.46
2024-03-02T01:19:14.455Z,11.03
2024-03-02T01:21:51.678Z,11.18
2024-03-02T01:24:21.204Z,11.08
2024-03-02T01:26:50.146Z,11.31
2024-03-02T01:29:19.574Z,11.69
2024-03-02T01:31:49.720Z,11.36
2024-03-02T01:34:18.362Z,11.63
2024-03-02T01:36:47.122Z,11.72
2024-03-02T01:39:16.248Z,11.51
2024-03-02T01:41:45.374Z,11.51
2024-03-02T01:44:14.466Z,12.02
2024-03-02T01:46:46.574Z,11.85
2024-03-02T01:49:17.813Z,12.07
2024-03-02T01:51:47.473Z,11.95
2024-03-02T01:54:16.620Z,11.82
2024-03-02T01:56:45.423Z,12.24
2024-03-02T01:59:15.311Z,11.75
2024-03-02T02:01:47.400Z,11.73
2024-03-02T02:04:17.999Z,11.84
2024-03-02T02:06:47.117Z,11.67
2024-03-02T02:09:16.175Z,11.44
2024-03-02T02:11:45.267Z,11.96
2024-03-02T02:14:14.533Z,11.61
2024-03-02T02:16:50.615Z,11.42
2024-03-02T02:19:20.746Z,11.87
2024-03-02T02:21:51.614Z,12.15
2024-03-02T02:24:20.564Z,11.80
2024-03-02T02:26:52.088Z,11.83
2024-03-02T02:29:21.040Z,10.76
2024-03-02T02:31:51.070Z,11.23
2024-03-02T02:34:20.420Z,11.89
2024-03-02T02:36:48.822Z,11.58
2024-03-02T02:39:19.691Z,11.47
2024-03-02T02:41:49.369Z,11.30
2024-03-02T02:44:18.174Z,11.29
2024-03-02T02:46:46.610Z,11.23
2024-03-02T02:49:17.223Z,11.58
2024-03-02T02:51:46.361Z,11.32
2024-03-02T02:54:15.369Z,11.06
2024-03-02T02:56:45.198Z,11.65
2024-03-02T02:59:16.318Z,11.64
2024-03-02T03:01:45.720Z,11.68
2024-03-02T03:04:14.335Z,11.51
2024-03-02T03:06:43.409Z,11.58
2024-03-02T03:09:17.040Z,11.68
2024-03-02T03:11:47.560Z,11.91
2024-03-02T03:14:16.450Z,11.78
2024-03-02T03:16:45.275Z,11.66
2024-03-02T03:19:17.065Z,12.09
2024-03-02T03:21:46.173Z,11.87
2024-03-02T03:24:15.532Z,11.80
2024-03-02T03:26:44.232Z,11.76
2024-03-02T03:29:18.583Z,11.57
2024-03-02T03:31:48.197Z,11.58
2024-03-02T03:34:17.549Z,11.76
2024-03-02T03:36:46.506Z,11.55
2024-03-02T03:39:18.838Z,11.56
2024-03-02T03:41:47.824Z,11.39
2024-03-02T03:44:19.719Z,11.61
2024-03-02T03:46:50.028Z,11.35
2024-03-02T03:49:18.651Z,11.46
2024-03-02T03:51:47.813Z,11.68
2024-03-02T03:54:16.842Z,11.77
2024-03-02T03:56:45.410Z,11.75
2024-03-02T03:59:21.868Z,11.66
2024-03-02T04:01:52.524Z,11.82
2024-03-02T04:04:21.757Z,11.64
2024-03-02T04:06:50.465Z,11.74
2024-03-02T04:09:19.016Z,11.24
2024-03-02T04:11:48.274Z,11.59
2024-03-02T04:14:17.322Z,11.18
2024-03-02T04:16:46.419Z,11.51
2024-03-02T04:19:19.959Z,11.29
2024-03-02T04:21:48.852Z,11.28
2024-03-02T04:24:21.603Z,10.98
2024-03-02T04:26:50.291Z,10.61
2024-03-02T04:29:19.938Z,11.10
2024-03-02T04:31:48.850Z,11.08
2024-03-02T04:34:19.361Z,11.28
2024-03-02T04:36:48.382Z,10.71
2024-03-02T04:39:20.441Z,10.98
2024-03-02T04:41:49.428Z,10.97
2024-03-02T04:44:18.244Z,11.07
2024-03-02T04:46:46.770Z,11.32
2024-03-02T04:49:21.682Z,11.08
2024-03-02T04:51:51.267Z,11.15
2024-03-02T04:54:20.141Z,11.33
2024-03-02T04:56:51.902Z,11.26
2024-03-02T04:59:21.276Z,11.13
2024-03-02T05:01:50.431Z,11.22
2024-03-02T05:04:19.261Z,11.44
2024-03-02T05:06:56.991Z,11.39
2024-03-02T05:09:25.650Z,11.26
2024-03-02T05:12:31.659Z,11.40
2024-03-02T05:15:00.394Z,11.45
2024-03-02T05:17:29.192Z,11.54
2024-03-02T05:19:58.699Z,11.20
2024-03-02T05:22:36.900Z,11.68
2024-03-02T05:25:06.462Z,11.57
2024-03-02T05:27:35.475Z,11.73
2024-03-02T05:30:04.884Z,11.57
2024-03-02T05:32:33.700Z,11.60
2024-03-02T05:35:04.241Z,11.58
2024-03-02T05:37:34.664Z,11.43
2024-03-02T05:40:05.250Z,11.23
2024-03-02T05:42:34.567Z,11.17
2024-03-02T05:45:03.408Z,11.37
2024-03-02T05:47:32.448Z,11.45
2024-03-02T05:50:01.385Z,11.13
2024-03-02T05:52:32.508Z,11.41
2024-03-02T05:55:03.012Z,11.40
2024-03-02T05:57:48.814Z,11.34
2024-03-02T06:00:19.316Z,11.28
2024-03-02T06:02:49.361Z,11.05
2024-03-02T06:05:19.948Z,10.96
2024-03-02T06:07:49.002Z,10.95
2024-03-02T06:10:22.464Z,11.08
2024-03-02T06:12:51.696Z,10.96
2024-03-02T06:15:21.219Z,10.93
2024-03-02T06:17:50.482Z,10.78
2024-03-02T06:20:19.447Z,10.40
2024-03-02T06:22:48.395Z,10.70
2024-03-02T06:25:18.166Z,10.93
2024-03-02T06:27:48.722Z,10.88
2024-03-02T06:30:19.609Z,10.96
2024-03-02T06:32:48.934Z,10.88
2024-03-02T06:35:17.428Z,10.82
2024-03-02T06:37:46.287Z,11.26
2024-03-02T06:40:15.332Z,11.15
2024-03-02T06:42:44.670Z,11.46
2024-03-02T06:45:14.723Z,11.07
2024-03-02T06:47:43.726Z,11.27
2024-03-02T06:50:12.771Z,11.15
2024-03-02T06:52:47.541Z,11.06
2024-03-02T06:55:16.675Z,10.82
2024-03-02T06:57:46.013Z,10.74
2024-03-02T07:00:21.777Z,11.04
2024-03-02T07:02:51.194Z,11.04
2024-03-02T07:05:20.028Z,11.29
2024-03-02T07:07:49.061Z,11.26
2024-03-02T07:10:18.374Z,11.38
2024-03-02T07:12:47.033Z,11.33
2024-03-02T07:15:45.615Z,11.60
2024-03-02T07:18:19.436Z,11.67
2024-03-02T07:20:50.948Z,11.48
2024-03-02T07:23:21.791Z,11.70
2024-03-02T07:28:24.655Z,11.58
2024-03-02T07:31:00.050Z,11.66
2024-03-02T07:33:30.789Z,11.71
2024-03-02T07:36:02.035Z,11.59
2024-03-02T07:38:36.579Z,11.52
2024-03-02T07:41:06.107Z,11.46
2024-03-02T07:43:35.427Z,11.32
2024-03-02T07:46:05.359Z,11.31
2024-03-02T07:48:35.684Z,10.83
2024-03-02T07:51:05.272Z,11.13
2024-03-02T07:53:33.929Z,11.07
2024-03-02T07:56:05.587Z,11.38
2024-03-02T07:58:35.165Z,11.10
2024-03-02T08:01:04.144Z,11.42
2024-03-02T08:03:33.702Z,11.15
2024-03-02T08:06:03.837Z,11.12
2024-03-02T08:08:33.095Z,11.16
2024-03-02T08:11:02.295Z,10.82
2024-03-02T08:13:30.377Z,11.40
2024-03-02T08:15:59.508Z,10.92
2024-03-02T08:18:28.711Z,11.11
2024-03-02T08:20:57.556Z,11.12
2024-03-02T08:23:30.087Z,11.12
2024-03-02T08:25:59.198Z,10.78
2024-03-02T08:28:28.211Z,10.95
2024-03-02T08:30:57.294Z,11.01
2024-03-02T08:33:26.668Z,10.83
2024-03-02T08:35:59.800Z,10.87
2024-03-02T08:38:30.162Z,11.16
2024-03-02T08:40:59.241Z,11.56
2024-03-02T08:43:28.217Z,11.79
2024-03-02T08:45:59.355Z,12.03
2024-03-02T08:48:28.577Z,11.82
2024-03-02T08:50:57.489Z,11.69
2024-03-02T08:53:27.120Z,11.88
2024-03-02T08:56:02.839Z,11.89
2024-03-02T08:58:32.702Z,11.89
2024-03-02T09:01:01.867Z,11.76
2024-03-02T09:03:31.317Z,11.95
2024-03-02T09:06:00.495Z,11.70
2024-03-02T09:08:33.302Z,11.58
2024-03-02T09:11:04.137Z,11.60
2024-03-02T09:13:33.045Z,11.69
2024-03-02T09:16:01.770Z,11.79
2024-03-02T09:18:30.341Z,11.80
2024-03-02T09:20:59.129Z,11.59
2024-03-02T09:23:27.805Z,11.60
2024-03-02T09:26:02.637Z,11.75
2024-03-02T09:28:33.334Z,11.68
2024-03-02T09:31:03.308Z,11.56
2024-03-02T09:33:32.560Z,11.66
2024-03-02T09:36:01.870Z,11.24
2024-03-02T09:38:31.205Z,11.48
2024-03-02T09:41:00.327Z,11.30
2024-03-02T09:43:29.534Z,11.42
2024-03-02T09:46:03.108Z,11.73
2024-03-02T09:48:32.164Z,12.22
2024-03-02T09:51:02.779Z,12.09
2024-03-02T09:53:33.607Z,12.42
2024-03-02T09:56:02.644Z,12.31
2024-03-02T09:58:31.562Z,11.97
2024-03-02T10:01:00.200Z,12.13
2024-03-02T10:03:31.287Z,11.97
2024-03-02T10:06:21.212Z,11.86
2024-03-02T10:08:51.217Z,11.64
2024-03-02T10:11:30.706Z,11.67
2024-03-02T10:14:02.746Z,11.71
2024-03-02T10:16:31.318Z,11.83
2024-03-02T10:19:17.099Z,11.97
2024-03-02T10:21:52.201Z,11.53
2024-03-02T10:24:22.402Z,11.92
2024-03-02T10:26:51.117Z,11.74
2024-03-02T10:29:20.265Z,11.84
2024-03-02T10:31:49.320Z,11.95
2024-03-02T10:34:20.667Z,12.15
2024-03-02T10:36:50.276Z,11.70
2024-03-02T10:39:19.345Z,11.61
2024-03-02T10:41:52.000Z,11.82
2024-03-02T10:44:21.699Z,11.99
2024-03-02T10:46:52.195Z,11.70
2024-03-02T10:49:23.500Z,12.09
2024-03-02T10:51:52.948Z,11.87
2024-03-02T10:54:27.151Z,12.22
2024-03-02T10:56:56.604Z,12.12
2024-03-02T10:59:28.788Z,12.15
2024-03-02T11:02:05.512Z,12.41
2024-03-02T11:04:37.365Z,12.40
2024-03-02T11:07:07.269Z,12.05
2024-03-02T11:09:39.810Z,11.85
2024-03-02T11:12:12.481Z,12.14
2024-03-02T11:14:45.513Z,12.06
2024-03-02T11:17:17.030Z,12.52
2024-03-02T11:19:48.543Z,12.31
2024-03-02T11:22:17.498Z,11.97
2024-03-02T11:24:50.436Z,12.10
2024-03-02T11:27:44.530Z,12.11
2024-03-02T11:30:38.913Z,11.71
2024-03-02T11:33:09.801Z,12.06
2024-03-02T11:35:44.181Z,11.78
2024-03-02T11:38:14.893Z,12.09
2024-03-02T11:40:43.823Z,11.82
2024-03-02T11:43:19.724Z,11.82
2024-03-02T11:45:48.847Z,11.73
2024-03-02T11:48:17.932Z,12.11
2024-03-02T11:50:51.624Z,12.19
2024-03-02T11:53:21.462Z,12.15
2024-03-02T11:55:51.526Z,12.17
2024-03-02T11:58:22.035Z,11.71
2024-03-02T12:00:52.994Z,11.78
2024-03-02T12:03:27.813Z,11.87
2024-03-02T12:05:58.098Z,11.75
2024-03-02T12:08:27.171Z,11.76
2024-03-02T12:10:59.253Z,11.87
2024-03-02T12:13:28.297Z,11.91
2024-03-02T12:15:58.740Z,12.30
2024-03-02T12:18:28.113Z,12.41
2024-03-02T12:20:59.989Z,12.37
2024-03-02T12:23:28.894Z,12.26
2024-03-02T12:25:58.409Z,11.75
2024-03-02T12:28:27.497Z,12.06
2024-03-02T12:30:56.822Z,12.33
2024-03-02T12:33:26.410Z,12.43
2024-03-02T12:35:55.352Z,12.54
2024-03-02T12:38:26.945Z,12.87
2024-03-02T12:40:55.960Z,12.29
2024-03-02T12:43:25.173Z,12.46
2024-03-02T12:45:57.421Z,12.53
2024-03-02T12:48:26.877Z,12.70
2024-03-02T12:50:56.160Z,12.53
2024-03-02T12:53:26.494Z,12.63
2024-03-02T12:55:57.114Z,12.43
2024-03-02T12:58:25.879Z,12.54
2024-03-02T13:01:07.996Z,12.02
2024-03-02T13:03:41.907Z,12.43
2024-03-02T13:06:10.994Z,12.29
2024-03-02T13:08:40.711Z,11.97
2024-03-02T13:11:09.500Z,12.15
2024-03-02T13:13:38.717Z,12.16
2024-03-02T13:16:10.349Z,12.31
2024-03-02T13:18:39.203Z,12.15
2024-03-02T13:21:08.284Z,12.38
2024-03-02T13:23:37.021Z,12.43
2024-03-02T13:26:08.851Z,12.28
2024-03-02T13:28:37.612Z,12.32
2024-03-02T13:31:08.044Z,11.92
2024-03-02T13:33:37.100Z,12.31
2024-03-02T13:36:07.133Z,12.47
2024-03-02T13:38:35.782Z,12.27
2024-03-02T13:41:04.304Z,12.14
2024-03-02T13:43:36.142Z,11.43
2024-03-02T13:46:08.042Z,11.41
2024-03-02T13:48:37.865Z,11.81
2024-03-02T13:51:06.786Z,11.12
2024-03-02T13:53:39.443Z,11.69
2024-03-02T13:56:08.815Z,11.02
2024-03-02T13:58:38.689Z,11.36
2024-03-02T14:01:07.709Z,10.96
2024-03-02T14:03:37.125Z,10.88
2024-03-02T14:06:06.228Z,11.14
2024-03-02T14:08:37.074Z,10.92
2024-03-02T14:11:06.098Z,10.58
2024-03-02T14:13:35.066Z,10.83
2024-03-02T14:16:05.127Z,11.16
2024-03-02T14:18:34.117Z,10.88
2024-03-02T14:21:02.855Z,10.86
2024-03-02T14:23:31.761Z,11.01
2024-03-02T14:26:00.713Z,10.74
2024-03-02T14:28:44.008Z,10.86
2024-03-02T14:31:21.197Z,10.76
2024-03-02T14:33:50.805Z,10.70
2024-03-02T14:36:20.207Z,11.27
2024-03-02T14:38:49.284Z,11.20
2024-03-02T14:41:17.948Z,11.19
2024-03-02T14:43:47.181Z,11.30
2024-03-02T14:46:16.456Z,11.09
2024-03-02T14:48:48.162Z,11.29
2024-03-02T14:51:17.346Z,11.33
2024-03-02T14:53:49.206Z,11.24
2024-03-02T14:56:18.369Z,11.20
2024-03-02T14:58:47.094Z,11.23
2024-03-02T15:01:17.277Z,11.19
2024-03-02T15:03:47.849Z,11.06
2024-03-02T15:06:16.673Z,10.95
2024-03-02T15:08:47.470Z,11.26
2024-03-02T15:11:16.992Z,11.29
2024-03-02T15:13:46.259Z,11.11
2024-03-02T15:16:14.778Z,11.49
2024-03-02T15:18:43.698Z,11.62
2024-03-02T15:21:14.045Z,11.14
2024-03-02T15:23:43.034Z,11.22
2024-03-02T15:26:13.264Z,11.01
2024-03-02T15:28:41.925Z,11.21
2024-03-02T15:31:11.094Z,11.43
2024-03-02T15:33:40.159Z,11.06
2024-03-02T15:36:09.952Z,11.45
2024-03-02T15:38:42.733Z,11.62
2024-03-02T15:41:11.603Z,11.67
2024-03-02T15:43:42.654Z,11.90
2024-03-02T15:46:11.724Z,11.99
2024-03-02T15:48:41.487Z,11.72
2024-03-02T15:51:09.922Z,11.90
2024-03-02T15:53:38.737Z,12.08
2024-03-02T15:56:10.168Z,12.03
2024-03-02T15:58:39.466Z,12.36
2024-03-02T16:01:08.557Z,11.94
2024-03-02T16:03:38.338Z,11.79
2024-03-02T16:06:07.649Z,12.26
2024-03-02T16:08:36.636Z,12.16
2024-03-02T16:11:05.954Z,11.95
2024-03-02T16:13:37.106Z,11.89
2024-03-02T16:16:06.259Z,11.68
2024-03-02T16:18:35.717Z,11.87
2024-03-02T16:21:05.349Z,12.16
2024-03-02T16:23:35.030Z,12.26
2024-03-02T16:26:03.947Z,12.23
2024-03-02T16:28:32.805Z,12.15
2024-03-02T16:31:03.607Z,12.27
2024-03-02T16:33:32.627Z,12.45
2024-03-02T16:36:01.690Z,12.53
2024-03-02T16:38:31.030Z,12.28
2024-03-02T16:41:03.702Z,12.30
2024-03-02T16:43:33.180Z,12.37
2024-03-02T16:46:05.290Z,12.37
2024-03-02T16:48:34.399Z,12.35
2024-03-02T16:51:02.953Z,12.40
2024-03-02T16:53:31.708Z,12.45
2024-03-02T16:56:01.667Z,12.26
2024-03-02T16:58:30.180Z,12.46
2024-03-02T17:00:58.560Z,12.61
2024-03-02T17:03:29.161Z,12.49
2024-03-02T17:05:57.958Z,12.29
2024-03-02T17:08:26.794Z,12.60
2024-03-02T17:10:56.037Z,12.18
2024-03-02T17:13:25.173Z,12.35
2024-03-02T17:15:54.123Z,12.01
2024-03-02T17:18:22.519Z,11.99
2024-03-02T17:20:52.682Z,12.21
2024-03-02T17:23:22.369Z,12.11
2024-03-02T17:25:54.458Z,11.95
2024-03-02T17:28:23.952Z,11.74
2024-03-02T17:30:53.098Z,12.02
2024-03-02T17:33:22.303Z,12.14
2024-03-02T17:35:54.125Z,12.11
2024-03-02T17:38:23.672Z,12.05
2024-03-02T17:40:55.578Z,12.23
2024-03-02T17:43:25.386Z,12.09
2024-03-02T17:45:55.572Z,12.27
2024-03-02T17:48:24.856Z,12.31
2024-03-02T17:50:55.842Z,12.21
2024-03-02T17:53:25.026Z,12.24
2024-03-02T17:55:57.423Z,12.16
2024-03-02T17:58:26.991Z,12.03
2024-03-02T18:00:57.952Z,12.12
2024-03-02T18:03:27.183Z,11.86
2024-03-02T18:05:57.506Z,12.06
2024-03-02T18:08:39.376Z,12.03
2024-03-02T18:11:09.053Z,12.10
2024-03-02T18:13:38.073Z,11.64
2024-03-02T18:16:14.805Z,11.74
2024-03-02T18:18:44.431Z,11.56
2024-03-02T18:21:14.711Z,11.89
2024-03-02T18:23:44.002Z,11.80
2024-03-02T18:26:13.438Z,11.87
2024-03-02T18:28:42.445Z,11.91
2024-03-02T18:31:22.867Z,12.23
2024-03-02T18:33:52.307Z,11.95
2024-03-02T18:36:22.728Z,11.93
2024-03-02T18:38:52.900Z,11.90
2024-03-02T18:41:22.714Z,11.87
2024-03-02T18:43:52.305Z,11.92
2024-03-02T18:46:21.150Z,11.92
2024-03-02T18:51:28.118Z,11.75
2024-03-02T18:54:00.934Z,11.73
2024-03-02T18:56:30.114Z,11.69
2024-03-02T18:59:06.016Z,11.46
2024-03-02T19:01:37.964Z,11.67
2024-03-02T19:04:07.564Z,11.84
2024-03-02T19:06:38.696Z,11.95
2024-03-02T19:09:08.329Z,11.79
2024-03-02T19:11:37.370Z,11.44
2024-03-02T19:14:06.583Z,11.52
2024-03-02T19:16:37.366Z,11.52
2024-03-02T19:19:06.744Z,11.80
2024-03-02T19:21:36.343Z,11.76
2024-03-02T19:24:09.739Z,11.57
2024-03-02T19:26:39.226Z,11.51
2024-03-02T19:29:12.565Z,12.07
2024-03-02T19:31:44.515Z,12.25
2024-03-02T19:34:13.329Z,11.83
2024-03-02T19:36:43.013Z,11.83
2024-03-02T19:39:13.869Z,11.76
2024-03-02T19:41:43.252Z,11.94
2024-03-02T19:44:12.412Z,11.69
2024-03-02T19:46:45.405Z,11.93
2024-03-02T19:49:16.621Z,11.66
2024-03-02T19:51:45.753Z,11.91
2024-03-02T19:54:19.106Z,11.74
2024-03-02T19:56:47.596Z,11.62
2024-03-02T19:59:16.504Z,11.69
2024-03-02T20:01:46.035Z,11.73
2024-03-02T20:04:15.250Z,11.54
2024-03-02T20:06:45.160Z,11.57
2024-03-02T20:09:14.528Z,11.78
2024-03-02T20:11:49.492Z,11.77
2024-03-02T20:14:18.178Z,11.75
2024-03-02T20:16:47.072Z,11.73
2024-03-02T20:19:18.282Z,11.90
2024-03-02T20:21:48.242Z,11.64
2024-03-02T20:24:20.774Z,11.75
2024-03-02T20:26:52.117Z,11.81
2024-03-02T20:29:33.804Z,11.46
2024-03-02T20:32:03.309Z,11.65
2024-03-02T20:34:31.781Z,11.42
2024-03-02T20:37:07.880Z,11.35
2024-03-02T20:39:37.983Z,11.56
2024-03-02T20:42:08.614Z,11.86
2024-03-02T20:44:37.718Z,11.62
2024-03-02T20:47:09.551Z,11.51
2024-03-02T20:49:39.107Z,11.20
2024-03-02T20:52:08.919Z,11.35
2024-03-02T20:54:38.828Z,12.02
2024-03-02T20:57:13.813Z,11.84
2024-03-02T20:59:43.188Z,11.71
2024-03-02T21:02:11.956Z,11.77
2024-03-02T21:04:43.684Z,11.81
2024-03-02T21:07:13.451Z,11.82
2024-03-02T21:09:42.790Z,11.72
2024-03-02T21:12:18.773Z,11.62
2024-03-02T21:14:48.276Z,11.58
2024-03-02T21:17:17.202Z,11.51
2024-03-02T21:19:45.886Z,11.61
2024-03-02T21:22:15.113Z,11.66
2024-03-02T21:24:47.104Z,11.95
2024-03-02T21:27:19.254Z,11.79
2024-03-02T21:29:50.860Z,11.73
2024-03-02T21:32:19.942Z,11.81
2024-03-02T21:34:49.240Z,11.69
2024-03-02T21:37:18.181Z,11.67
2024-03-02T21:39:47.737Z,11.81
2024-03-02T21:42:16.482Z,11.47
2024-03-02T21:44:45.422Z,11.67
2024-03-02T21:47:17.681Z,11.48
2024-03-02T21:49:47.326Z,11.54
2024-03-02T21:52:16.443Z,11.61
2024-03-02T21:54:50.261Z,11.61
2024-03-02T21:57:21.247Z,11.56
2024-03-02T21:59:49.942Z,11.48
2024-03-02T22:02:20.570Z,11.64
2024-03-02T22:04:50.025Z,11.50
2024-03-02T22:07:18.788Z,11.82
2024-03-02T22:09:47.517Z,11.40
2024-03-02T22:12:19.348Z,11.37
2024-03-02T22:14:48.012Z,11.41
2024-03-02T22:17:16.778Z,11.45
2024-03-02T22:19:47.066Z,11.48
2024-03-02T22:22:16.212Z,11.28
2024-03-02T22:24:45.019Z,11.67
2024-03-02T22:27:17.675Z,11.45
2024-03-02T22:29:46.798Z,11.46
2024-03-02T22:32:15.357Z,11.29
2024-03-02T22:34:44.008Z,11.14
2024-03-02T22:37:19.040Z,11.14
2024-03-02T22:39:47.868Z,11.12
2024-03-02T22:42:16.663Z,10.91
2024-03-02T22:44:45.167Z,11.23
2024-03-02T22:47:14.165Z,11.18
2024-03-02T22:49:42.931Z,11.35
2024-03-02T22:52:11.406Z,11.42
2024-03-02T22:54:41.467Z,10.84
2024-03-02T22:57:18.158Z,11.22
2024-03-02T22:59:50.020Z,11.02
2024-03-02T23:02:19.573Z,11.13
2024-03-02T23:04:49.297Z,11.07
2024-03-02T23:07:20.594Z,11.09
2024-03-02T23:09:51.099Z,11.12
2024-03-02T23:12:19.847Z,11.20
2024-03-02T23:14:49.025Z,11.37
2024-03-02T23:17:18.097Z,11.28
2024-03-02T23:19:46.784Z,11.00
2024-03-02T23:22:15.783Z,10.92
2024-03-02T23:24:45.706Z,11.11
2024-03-02T23:27:17.120Z,11.28
2024-03-02T23:29:46.161Z,10.75
2024-03-02T23:32:17.779Z,10.69
2024-03-02T23:34:46.846Z,10.62
2024-03-02T23:37:16.099Z,9.60
2024-03-02T23:40:07.694Z,9.79
2024-03-02T23:42:38.281Z,10.14
2024-03-02T23:45:07.163Z,10.29
2024-03-02T23:47:35.950Z,10.28
2024-03-02T23:50:05.099Z,10.13
2024-03-02T23:52:34.114Z,10.14
2024-03-02T23:55:04.842Z,10.07
2024-03-02T23:57:35.029Z,10.31
